Impacts TAF Board INFO
FOR SITUATIONAL AWARENESS. NOT TO BE USED FOR FLIGHT PLANNING PURPOSES.
IDs:

KSEA - Seattle-Tacoma Intl, WA, US

Issued at 2105 UTC 25 May 2018
Updated at 2221 UTC 25 May 2018
Potential Impact None Slight Moderate High
Time<<26/23Z 27/00Z 27/01Z 27/02Z 27/03Z 27/04Z 27/05Z 27/06Z 27/07Z 27/08Z 27/09Z 27/10Z 27/11Z
Type PRVL
VIS >6
CIG 40
Cover BKN
FltCat VFR
WX --
WDir 240
WSpd 6
WGst --

Raw TAF
KSEA 252105Z 2521/2624 31007KT P6SM SCT030 SCT045
  FM260100 35008KT P6SM SCT035 BKN050
  FM260500 20005KT P6SM SCT050
  FM261100 18005KT P6SM SCT014 BKN020 OVC045
  FM261800 22005KT P6SM SCT020 BKN030
  FM262100 24006KT P6SM SCT030 BKN040


METAR Board
Radar Display
Forecast Discussion

FOR SITUATIONAL AWARENESS. NOT TO BE USED FOR FLIGHT PLANNING PURPOSES.